Time;durP1;ratioP1;P1;durP2;ratioP2;P2;SDS_P1;SDS_P2;PMS_P1;PMS_P2;Temp;Humidity;BMP_temperature;BMP_pressure;BME280_temperature;BME280_humidity;BME280_pressure;Samples;Min_cycle;Max_cycle;Signal;HPM_P1;HPM_P2
2021/07/11 00:01:08;;;;;;;14.90;12.00;;;20.40;99.90;;;;;;5032053;28;20430;-54
2021/07/11 00:03:34;;;;;;;13.30;12.00;;;20.40;99.90;;;;;;5031952;28;20432;-54
2021/07/11 00:06:01;;;;;;;12.90;11.70;;;20.40;99.90;;;;;;5031372;28;20940;-53
2021/07/11 00:08:29;;;;;;;11.33;10.33;;;20.30;99.90;;;;;;5013680;28;20460;-53
2021/07/11 00:10:55;;;;;;;12.93;11.63;;;20.40;99.90;;;;;;5032272;28;20435;-53
2021/07/11 00:13:22;;;;;;;12.50;11.20;;;20.30;99.90;;;;;;5031764;28;20440;-53
2021/07/11 00:15:49;;;;;;;14.73;11.57;;;20.30;99.90;;;;;;5030642;28;20490;-53
2021/07/11 00:18:15;;;;;;;11.73;10.50;;;20.20;99.90;;;;;;5031202;28;20785;-53
2021/07/11 00:20:42;;;;;;;12.90;10.57;;;20.30;99.90;;;;;;5031340;28;20439;-53
2021/07/11 00:23:09;;;;;;;11.10;10.20;;;20.20;99.90;;;;;;5031441;28;20463;-53
2021/07/11 00:25:37;;;;;;;16.70;9.20;;;20.20;99.90;;;;;;5031390;28;20459;-53
2021/07/11 00:28:04;;;;;;;15.00;10.40;;;20.10;99.90;;;;;;5031162;28;20439;-53
2021/07/11 00:30:31;;;;;;;12.30;9.77;;;20.10;99.90;;;;;;5031451;28;20456;-53
2021/07/11 00:32:58;;;;;;;13.67;11.03;;;20.10;99.90;;;;;;5031364;28;20458;-53
2021/07/11 00:35:25;;;;;;;10.73;9.83;;;20.10;99.90;;;;;;5013413;28;20490;-53
2021/07/11 00:37:52;;;;;;;10.80;9.77;;;20.10;99.90;;;;;;5013337;28;20972;-53
2021/07/11 00:40:20;;;;;;;12.90;11.03;;;20.00;99.90;;;;;;5030949;28;20445;-53
2021/07/11 00:42:49;;;;;;;11.97;9.60;;;20.00;99.90;;;;;;5031520;28;20436;-53
2021/07/11 00:45:17;;;;;;;12.53;11.33;;;20.00;99.90;;;;;;5013301;28;20978;-54
2021/07/11 00:47:47;;;;;;;12.03;10.93;;;20.00;99.90;;;;;;5013519;28;20979;-53
2021/07/11 00:50:17;;;;;;;11.43;10.33;;;20.00;99.90;;;;;;5013059;28;20453;-53
2021/07/11 00:52:46;;;;;;;11.00;9.90;;;20.00;99.90;;;;;;5013579;28;20456;-53
2021/07/11 00:55:23;;;;;;;12.17;10.80;;;19.90;99.90;;;;;;5013330;28;20673;-53
2021/07/11 00:57:52;;;;;;;11.60;10.40;;;19.90;99.90;;;;;;5031399;28;20482;-53
2021/07/11 01:00:23;;;;;;;10.13;9.23;;;19.90;99.90;;;;;;5013057;28;20463;-53
2021/07/11 01:03:08;;;;;;;12.23;10.10;;;19.90;99.90;;;;;;5013143;28;20443;-54
2021/07/11 01:05:35;;;;;;;10.93;9.33;;;19.90;99.90;;;;;;5031188;28;21124;-53
2021/07/11 01:08:06;;;;;;;9.87;8.87;;;19.90;99.90;;;;;;5030815;28;20443;-53
2021/07/11 01:10:45;;;;;;;10.83;9.93;;;19.80;99.90;;;;;;5031057;28;20539;-53
2021/07/11 01:13:15;;;;;;;15.70;10.00;;;19.90;99.90;;;;;;5013257;28;20991;-53
2021/07/11 01:15:52;;;;;;;10.73;9.73;;;19.80;99.90;;;;;;5031164;28;20484;-53
2021/07/11 01:18:22;;;;;;;11.37;10.20;;;19.80;99.90;;;;;;5030609;28;20447;-53
2021/07/11 01:20:55;;;;;;;12.40;10.60;;;19.80;99.90;;;;;;5013023;28;20459;-53
2021/07/11 01:23:36;;;;;;;11.57;10.40;;;19.70;99.90;;;;;;5013153;28;20451;-53
2021/07/11 01:26:07;;;;;;;11.30;10.20;;;19.70;99.90;;;;;;5014367;28;20478;-53
2021/07/11 01:28:35;;;;;;;10.80;9.67;;;19.70;99.90;;;;;;5016656;28;20530;-53
2021/07/11 01:31:04;;;;;;;12.17;10.97;;;19.70;99.90;;;;;;5017095;28;20455;-53
2021/07/11 01:33:34;;;;;;;11.20;10.10;;;19.70;99.90;;;;;;5016696;28;20459;-52
2021/07/11 01:36:05;;;;;;;10.67;9.73;;;19.60;99.90;;;;;;5034528;28;20971;-52
2021/07/11 01:38:34;;;;;;;10.83;9.63;;;19.60;99.90;;;;;;5016747;28;20451;-52
2021/07/11 01:41:05;;;;;;;9.53;8.73;;;19.60;99.90;;;;;;5016660;28;20510;-53
2021/07/11 01:43:33;;;;;;;14.83;9.77;;;19.60;99.90;;;;;;5016627;28;20497;-52
2021/07/11 01:46:01;;;;;;;11.37;10.37;;;19.60;99.90;;;;;;5016393;28;21064;-53
2021/07/11 01:48:30;;;;;;;17.63;10.10;;;19.60;99.90;;;;;;5016028;28;20549;-53
2021/07/11 01:50:58;;;;;;;11.27;10.17;;;19.50;99.90;;;;;;5016372;28;20447;-52
2021/07/11 01:53:31;;;;;;;15.77;9.53;;;19.50;99.90;;;;;;5016340;28;20441;-53
2021/07/11 01:55:59;;;;;;;11.10;9.00;;;19.50;99.90;;;;;;5034381;28;20490;-53
2021/07/11 01:58:30;;;;;;;12.60;11.30;;;19.50;99.90;;;;;;5016178;28;20477;-53
2021/07/11 02:01:00;;;;;;;10.60;9.60;;;19.50;99.90;;;;;;5016365;28;20466;-53
2021/07/11 02:03:29;;;;;;;11.30;10.20;;;19.50;99.90;;;;;;5016311;28;20538;-52
2021/07/11 02:06:04;;;;;;;10.27;9.27;;;19.50;99.90;;;;;;5034163;28;20860;-53
2021/07/11 02:08:33;;;;;;;13.27;9.90;;;19.40;99.90;;;;;;5015963;28;20443;-53
2021/07/11 02:11:02;;;;;;;10.17;9.27;;;19.40;99.90;;;;;;5016092;28;20463;-54
2021/07/11 02:13:37;;;;;;;9.87;9.07;;;19.40;99.90;;;;;;5034084;28;20427;-53
2021/07/11 02:16:12;;;;;;;9.93;8.90;;;19.40;99.90;;;;;;5015916;28;20861;-53
2021/07/11 02:18:42;;;;;;;11.47;10.20;;;19.40;99.90;;;;;;5015680;28;20842;-53
2021/07/11 02:21:21;;;;;;;13.20;9.67;;;19.30;99.90;;;;;;5016104;28;20462;-53
2021/07/11 02:23:50;;;;;;;10.50;9.60;;;19.30;99.90;;;;;;5015810;28;20508;-53
2021/07/11 02:26:18;;;;;;;12.33;10.27;;;19.30;99.90;;;;;;5015808;28;20512;-53
2021/07/11 02:28:50;;;;;;;13.30;9.27;;;19.30;99.90;;;;;;5032088;28;20458;-53
2021/07/11 02:31:17;;;;;;;10.80;9.20;;;19.30;99.90;;;;;;5033607;28;20451;-53
2021/07/11 02:33:45;;;;;;;11.07;10.07;;;19.30;99.90;;;;;;5033463;28;20443;-53
2021/07/11 02:36:14;;;;;;;11.97;9.17;;;19.30;99.90;;;;;;5015674;28;20561;-53
2021/07/11 02:38:47;;;;;;;9.50;8.60;;;19.30;99.90;;;;;;5014362;28;20551;-53
2021/07/11 02:41:17;;;;;;;11.53;10.53;;;19.30;99.90;;;;;;5015683;28;20561;-53
2021/07/11 02:43:44;;;;;;;11.00;9.90;;;19.30;99.90;;;;;;5015359;28;20487;-53
2021/07/11 02:46:19;;;;;;;10.73;9.73;;;19.30;99.90;;;;;;5014800;28;20459;-53
2021/07/11 02:48:47;;;;;;;10.90;9.90;;;19.30;99.90;;;;;;5014047;28;20970;-53
2021/07/11 02:51:19;;;;;;;11.20;10.20;;;19.30;99.90;;;;;;5033147;28;20844;-53
2021/07/11 02:53:51;;;;;;;12.93;10.33;;;19.30;99.90;;;;;;5015236;28;21041;-53
2021/07/11 02:56:19;;;;;;;11.90;10.37;;;19.30;99.90;;;;;;5033267;28;20582;-53
2021/07/11 02:58:49;;;;;;;11.37;10.37;;;19.30;99.90;;;;;;5015035;28;20451;-53
2021/07/11 03:01:18;;;;;;;11.43;10.43;;;19.20;99.90;;;;;;5015405;28;20459;-53
2021/07/11 03:03:49;;;;;;;14.00;10.90;;;19.20;99.90;;;;;;5033071;28;20431;-53
2021/07/11 03:06:18;;;;;;;10.87;9.80;;;19.20;99.90;;;;;;5015289;28;20498;-53
2021/07/11 03:08:46;;;;;;;11.47;10.37;;;19.20;99.90;;;;;;5014925;28;20991;-53
2021/07/11 03:11:25;;;;;;;13.47;10.20;;;19.20;99.90;;;;;;5033063;28;20488;-53
2021/07/11 03:13:54;;;;;;;11.43;10.27;;;19.20;99.90;;;;;;5032871;28;20438;-53
2021/07/11 03:16:23;;;;;;;10.70;9.53;;;19.20;99.90;;;;;;5015073;28;20949;-53
2021/07/11 03:18:54;;;;;;;12.07;11.07;;;19.20;99.90;;;;;;5014783;28;20457;-54
2021/07/11 03:21:23;;;;;;;11.50;10.40;;;19.20;99.90;;;;;;5031873;28;20459;-53
2021/07/11 03:23:55;;;;;;;11.47;10.37;;;19.20;99.90;;;;;;5015193;28;20538;-53
2021/07/11 03:26:23;;;;;;;11.10;10.00;;;19.20;99.90;;;;;;5015027;28;20450;-53
2021/07/11 03:28:51;;;;;;;15.87;11.40;;;19.20;99.90;;;;;;5032293;28;20430;-53
2021/07/11 03:31:21;;;;;;;10.20;9.23;;;19.20;99.90;;;;;;5032442;28;20812;-54
2021/07/11 03:33:55;;;;;;;11.27;9.80;;;19.20;99.90;;;;;;5014747;28;20453;-53
2021/07/11 03:36:24;;;;;;;11.60;10.50;;;19.20;99.90;;;;;;5014590;28;20486;-53
2021/07/11 03:38:56;;;;;;;13.57;11.10;;;19.20;99.90;;;;;;5014390;28;20450;-53
2021/07/11 03:41:27;;;;;;;11.00;10.00;;;19.20;99.90;;;;;;5014592;28;20481;-53
2021/07/11 03:43:55;;;;;;;9.80;9.00;;;19.20;99.90;;;;;;5032252;28;20434;-53
2021/07/11 03:46:29;;;;;;;13.50;10.33;;;19.30;99.90;;;;;;5032235;28;20427;-53
2021/07/11 03:48:59;;;;;;;11.57;10.10;;;19.20;99.90;;;;;;5030560;28;20461;-53
2021/07/11 03:51:30;;;;;;;9.97;9.17;;;19.20;99.90;;;;;;5032262;28;20438;-53
2021/07/11 03:53:59;;;;;;;10.20;9.20;;;19.20;99.90;;;;;;5031962;28;20560;-54
2021/07/11 03:56:27;;;;;;;10.03;9.20;;;19.30;99.90;;;;;;5032110;28;20486;-53
2021/07/11 03:58:56;;;;;;;9.70;8.80;;;19.30;99.90;;;;;;5031812;28;20446;-53
2021/07/11 04:01:25;;;;;;;11.03;9.30;;;19.30;99.90;;;;;;5032093;28;20943;-54
2021/07/11 04:03:54;;;;;;;10.53;9.43;;;19.30;99.90;;;;;;5032258;28;20436;-53
2021/07/11 04:06:23;;;;;;;10.17;9.27;;;19.40;99.90;;;;;;5032109;28;20442;-53
2021/07/11 04:08:51;;;;;;;10.77;9.67;;;19.40;99.90;;;;;;5031842;28;20560;-53
2021/07/11 04:11:18;;;;;;;10.60;8.77;;;19.50;99.90;;;;;;5031934;28;20434;-53
2021/07/11 04:13:44;;;;;;;11.03;10.10;;;19.60;99.90;;;;;;5031904;28;20526;-53
2021/07/11 04:16:11;;;;;;;10.97;9.70;;;19.80;99.90;;;;;;5031640;28;20475;-53
2021/07/11 04:18:43;;;;;;;10.13;9.13;;;19.90;99.90;;;;;;5031220;28;21031;-53
2021/07/11 04:21:12;;;;;;;9.83;8.90;;;19.90;99.90;;;;;;5031651;28;20447;-53
2021/07/11 04:23:41;;;;;;;9.40;8.60;;;20.20;99.90;;;;;;5031859;28;20852;-53
2021/07/11 04:26:08;;;;;;;9.60;8.20;;;20.30;99.90;;;;;;5031513;28;20454;-53
2021/07/11 04:28:36;;;;;;;11.73;9.07;;;20.40;99.90;;;;;;5031305;28;20447;-53
2021/07/11 04:31:04;;;;;;;9.77;8.97;;;20.60;99.90;;;;;;5031296;28;20817;-53
2021/07/11 04:33:33;;;;;;;10.30;9.40;;;20.80;99.90;;;;;;5031474;28;20431;-53
2021/07/11 04:36:00;;;;;;;11.47;8.90;;;20.90;99.90;;;;;;5031251;28;20855;-53
2021/07/11 04:38:26;;;;;;;10.17;9.27;;;21.00;99.90;;;;;;5031082;28;20819;-53
2021/07/11 04:40:55;;;;;;;11.23;8.50;;;21.10;99.90;;;;;;5031425;28;20452;-58
2021/07/11 04:43:21;;;;;;;9.83;9.03;;;21.10;99.90;;;;;;5031296;28;20459;-53
2021/07/11 04:45:48;;;;;;;9.10;8.37;;;21.40;99.90;;;;;;5031275;28;20449;-53
2021/07/11 04:48:15;;;;;;;10.97;8.00;;;21.50;99.90;;;;;;5031391;28;20449;-53
2021/07/11 04:50:43;;;;;;;9.20;7.90;;;21.60;99.90;;;;;;5031247;28;20437;-53
2021/07/11 04:53:10;;;;;;;8.87;8.07;;;21.70;99.90;;;;;;5031218;28;20430;-53
2021/07/11 04:55:36;;;;;;;10.10;9.10;;;21.80;99.90;;;;;;5031583;28;20473;-53
2021/07/11 04:58:04;;;;;;;8.60;7.77;;;21.90;99.90;;;;;;5013245;28;20454;-53
2021/07/11 05:00:31;;;;;;;9.60;8.80;;;22.00;99.90;;;;;;5030584;28;20828;-53
2021/07/11 05:06:45;;;;;;;9.73;8.20;;;22.00;99.90;;;;;;5031099;28;20398;-53
2021/07/11 05:09:11;;;;;;;9.03;8.23;;;22.00;99.90;;;;;;5030671;28;20449;-54
2021/07/11 05:11:38;;;;;;;8.87;8.07;;;22.00;99.90;;;;;;5030962;28;20434;-53
2021/07/11 05:14:06;;;;;;;8.63;7.90;;;21.90;99.90;;;;;;5030886;28;20540;-54
2021/07/11 05:16:33;;;;;;;9.20;8.30;;;22.00;99.90;;;;;;5031022;28;20469;-54
2021/07/11 05:19:00;;;;;;;8.00;7.30;;;21.70;99.80;;;;;;5030755;28;20808;-54
2021/07/11 05:21:29;;;;;;;8.23;7.47;;;21.90;99.80;;;;;;5030909;28;20443;-54
2021/07/11 05:23:55;;;;;;;10.40;8.30;;;21.90;99.80;;;;;;5031014;28;20442;-54
2021/07/11 05:26:22;;;;;;;9.47;8.50;;;21.80;99.70;;;;;;5030901;28;20445;-54
2021/07/11 05:28:49;;;;;;;9.17;8.27;;;21.90;99.70;;;;;;5030494;28;20438;-54
2021/07/11 05:31:17;;;;;;;10.10;7.07;;;21.80;99.60;;;;;;5030917;28;20434;-54
2021/07/11 05:33:43;;;;;;;8.77;8.00;;;22.00;99.70;;;;;;5030795;28;20787;-54
2021/07/11 05:36:11;;;;;;;10.30;9.30;;;22.00;99.60;;;;;;5030769;28;20471;-55
2021/07/11 05:38:39;;;;;;;9.13;8.30;;;22.10;99.70;;;;;;5030627;28;20441;-54
2021/07/11 05:41:06;;;;;;;7.53;6.90;;;22.10;99.70;;;;;;5030994;28;20435;-54
2021/07/11 05:43:34;;;;;;;8.90;8.17;;;22.10;99.60;;;;;;5030844;28;20442;-53
2021/07/11 05:46:01;;;;;;;7.73;7.03;;;22.10;99.50;;;;;;5030678;28;20923;-54
2021/07/11 05:48:29;;;;;;;12.33;7.57;;;21.90;99.30;;;;;;5030258;28;20449;-54
2021/07/11 05:50:55;;;;;;;8.77;7.10;;;22.10;99.30;;;;;;5030734;28;20432;-54
2021/07/11 05:53:22;;;;;;;8.63;7.50;;;22.20;99.20;;;;;;5030821;28;20745;-54
2021/07/11 05:55:49;;;;;;;8.20;7.40;;;22.20;99.20;;;;;;5030448;28;20477;-54
2021/07/11 05:58:15;;;;;;;7.37;6.77;;;22.40;99.10;;;;;;5030485;28;20783;-54
2021/07/11 06:00:43;;;;;;;7.90;7.20;;;22.50;98.90;;;;;;5030567;28;20927;-54
2021/07/11 06:03:11;;;;;;;7.10;6.40;;;22.60;98.70;;;;;;5030493;28;20482;-54
2021/07/11 06:05:39;;;;;;;7.90;7.10;;;22.80;98.50;;;;;;5030437;28;20455;-54
2021/07/11 06:08:06;;;;;;;7.40;6.57;;;23.00;98.20;;;;;;5030226;28;20500;-53
2021/07/11 06:10:33;;;;;;;9.60;7.50;;;23.00;97.90;;;;;;5030573;28;20434;-55
2021/07/11 06:13:00;;;;;;;7.43;6.60;;;23.20;97.70;;;;;;5031616;28;20432;-54
2021/07/11 06:15:27;;;;;;;7.33;6.63;;;23.30;97.60;;;;;;5033905;28;20457;-55
2021/07/11 06:17:53;;;;;;;8.10;6.07;;;23.30;97.50;;;;;;5033903;28;20485;-54
2021/07/11 06:20:20;;;;;;;8.27;7.17;;;23.30;97.50;;;;;;5033614;28;20432;-54
2021/07/11 06:22:49;;;;;;;7.70;6.97;;;23.40;97.50;;;;;;5033869;28;20793;-54
2021/07/11 06:25:15;;;;;;;7.33;6.63;;;23.40;97.40;;;;;;5033504;28;20658;-54
2021/07/11 06:27:43;;;;;;;10.20;6.50;;;23.60;97.50;;;;;;5033824;28;20433;-53
2021/07/11 06:30:12;;;;;;;7.73;6.00;;;23.70;97.30;;;;;;5033410;28;20437;-54
2021/07/11 06:32:41;;;;;;;6.67;5.50;;;23.80;97.00;;;;;;5033628;28;20459;-55
2021/07/11 06:35:10;;;;;;;9.27;6.30;;;23.90;96.80;;;;;;5033452;28;20772;-54
2021/07/11 06:37:37;;;;;;;6.03;5.47;;;24.10;96.80;;;;;;5033545;28;20568;-54
2021/07/11 06:40:06;;;;;;;6.00;5.40;;;24.20;96.60;;;;;;5033240;28;20904;-54
2021/07/11 06:42:33;;;;;;;5.57;5.17;;;24.30;96.30;;;;;;5033419;28;20446;-54
2021/07/11 06:45:01;;;;;;;5.20;4.80;;;24.30;96.10;;;;;;5033278;28;20450;-54
2021/07/11 06:47:28;;;;;;;5.87;5.37;;;24.40;95.80;;;;;;5033586;28;20449;-55
2021/07/11 06:49:54;;;;;;;6.43;4.77;;;24.30;95.60;;;;;;5033076;28;20801;-54
2021/07/11 06:52:21;;;;;;;6.77;6.17;;;24.50;95.40;;;;;;5033472;28;20443;-54
2021/07/11 06:54:51;;;;;;;6.03;5.43;;;24.50;95.30;;;;;;5033164;28;20464;-54
2021/07/11 06:57:19;;;;;;;5.20;4.80;;;24.50;95.30;;;;;;5032921;28;20474;-54
2021/07/11 06:59:45;;;;;;;5.07;4.67;;;24.60;95.20;;;;;;5032946;28;20446;-54
2021/07/11 07:02:12;;;;;;;4.77;4.37;;;24.60;95.00;;;;;;5033366;28;20435;-54
2021/07/11 07:04:39;;;;;;;5.03;4.63;;;24.70;94.90;;;;;;5033139;28;20454;-54
2021/07/11 07:07:05;;;;;;;5.60;5.10;;;24.70;94.60;;;;;;5033184;28;20435;-54
2021/07/11 07:09:32;;;;;;;6.93;5.20;;;24.70;94.70;;;;;;5032586;28;20534;-54
2021/07/11 07:11:59;;;;;;;4.40;4.00;;;24.70;94.40;;;;;;5031969;28;20522;-54
2021/07/11 07:14:27;;;;;;;5.50;5.00;;;24.60;94.30;;;;;;5032704;28;20463;-54
2021/07/11 07:16:53;;;;;;;4.40;4.00;;;24.70;94.20;;;;;;5032979;28;20836;-54
2021/07/11 07:19:20;;;;;;;7.73;3.70;;;24.80;94.20;;;;;;5032545;28;20458;-54
2021/07/11 07:21:47;;;;;;;3.90;3.60;;;24.80;93.80;;;;;;5032741;28;20447;-54
2021/07/11 07:24:14;;;;;;;5.43;3.80;;;24.90;93.70;;;;;;5032111;28;20466;-55
2021/07/11 07:26:40;;;;;;;4.83;3.83;;;24.80;93.40;;;;;;5032718;28;20920;-54
2021/07/11 07:29:07;;;;;;;8.10;4.47;;;24.90;93.20;;;;;;5032408;28;20842;-53
2021/07/11 07:31:36;;;;;;;3.67;3.33;;;24.90;93.20;;;;;;5032593;28;20431;-53
2021/07/11 07:34:02;;;;;;;6.20;4.33;;;25.00;93.10;;;;;;5032704;28;20470;-54
2021/07/11 07:36:29;;;;;;;3.97;3.67;;;24.90;92.90;;;;;;5032723;28;20443;-55
2021/07/11 07:38:56;;;;;;;4.77;3.67;;;24.90;92.60;;;;;;5032208;28;20427;-54
2021/07/11 07:41:23;;;;;;;3.53;3.20;;;25.10;92.50;;;;;;5032525;28;20439;-53
2021/07/11 07:43:49;;;;;;;3.53;3.17;;;25.10;92.30;;;;;;5014124;28;20500;-53
2021/07/11 07:46:16;;;;;;;3.30;3.00;;;24.90;92.00;;;;;;5032637;28;20440;-56
2021/07/11 07:48:44;;;;;;;3.27;2.97;;;25.20;92.00;;;;;;5031970;28;20483;-53
2021/07/11 07:51:11;;;;;;;2.70;2.50;;;25.10;91.80;;;;;;5032024;28;20435;-53
2021/07/11 07:53:38;;;;;;;4.60;3.63;;;25.10;91.50;;;;;;5032074;28;20462;-53
2021/07/11 07:56:05;;;;;;;3.70;3.00;;;25.20;91.40;;;;;;5031765;28;20472;-54
2021/07/11 07:58:32;;;;;;;3.13;2.90;;;25.40;91.40;;;;;;5013679;28;20834;-54
2021/07/11 08:00:59;;;;;;;2.70;2.50;;;25.10;91.30;;;;;;5032219;28;20431;-54
2021/07/11 08:03:25;;;;;;;3.53;3.20;;;25.20;91.30;;;;;;5031870;28;20758;-54
2021/07/11 08:05:53;;;;;;;5.73;3.60;;;25.00;91.30;;;;;;5031969;28;20521;-53
2021/07/11 08:08:20;;;;;;;3.90;3.57;;;25.20;91.50;;;;;;5031848;28;20470;-54
2021/07/11 08:10:46;;;;;;;5.67;4.13;;;25.30;91.80;;;;;;5031776;28;20439;-54
2021/07/11 08:13:13;;;;;;;4.57;4.10;;;25.30;91.30;;;;;;5032191;28;20885;-54
2021/07/11 08:15:40;;;;;;;4.03;3.53;;;25.20;91.10;;;;;;5031837;28;20450;-55
2021/07/11 08:18:06;;;;;;;4.40;4.00;;;25.20;91.30;;;;;;5031068;28;20475;-54
2021/07/11 08:20:33;;;;;;;8.73;3.63;;;25.00;91.20;;;;;;5031513;28;20435;-54
2021/07/11 08:23:01;;;;;;;4.53;3.90;;;25.30;90.80;;;;;;5031641;28;20443;-54
2021/07/11 08:25:28;;;;;;;6.33;4.40;;;25.30;90.50;;;;;;5031598;28;20538;-55
2021/07/11 08:27:55;;;;;;;5.00;4.10;;;25.30;90.20;;;;;;5014020;28;20454;-54
2021/07/11 08:30:22;;;;;;;5.63;3.53;;;25.20;89.10;;;;;;5031319;28;20427;-55
2021/07/11 08:32:49;;;;;;;4.73;4.33;;;25.30;88.70;;;;;;5031499;28;20439;-55
2021/07/11 08:35:16;;;;;;;8.30;3.80;;;25.20;89.70;;;;;;5030873;28;20816;-55
2021/07/11 08:37:43;;;;;;;4.87;3.57;;;25.40;89.50;;;;;;5031409;28;20475;-55
2021/07/11 08:40:12;;;;;;;4.10;3.80;;;25.40;89.10;;;;;;5031696;28;20551;-55
2021/07/11 08:42:40;;;;;;;7.10;3.80;;;25.50;89.00;;;;;;5031607;28;20454;-54
2021/07/11 08:45:08;;;;;;;4.57;4.17;;;25.50;88.90;;;;;;5031352;28;20455;-55
2021/07/11 08:47:36;;;;;;;4.57;3.40;;;25.50;88.00;;;;;;5031297;28;20435;-55
2021/07/11 08:50:04;;;;;;;4.30;3.93;;;25.50;86.60;;;;;;5031088;28;20440;-55
2021/07/11 08:52:31;;;;;;;5.03;3.67;;;25.50;86.10;;;;;;5031259;28;20439;-55
2021/07/11 08:54:58;;;;;;;6.00;4.90;;;25.50;86.00;;;;;;5031024;28;20546;-55
2021/07/11 08:57:26;;;;;;;7.60;4.47;;;25.50;84.60;;;;;;5031183;28;20495;-55
2021/07/11 08:59:52;;;;;;;3.93;3.60;;;25.60;84.00;;;;;;5030629;28;20442;-55
2021/07/11 09:02:19;;;;;;;4.17;2.77;;;25.40;82.50;;;;;;5030758;28;20450;-55
2021/07/11 09:04:47;;;;;;;5.13;3.80;;;25.60;82.50;;;;;;5031197;28;20451;-55
2021/07/11 09:07:18;;;;;;;3.80;3.50;;;25.60;82.50;;;;;;5030965;28;20455;-54
2021/07/11 09:09:44;;;;;;;5.17;4.70;;;25.50;81.20;;;;;;5030709;28;20475;-55
2021/07/11 09:12:13;;;;;;;4.27;3.47;;;25.70;81.00;;;;;;5031422;28;20821;-54
2021/07/11 09:14:44;;;;;;;4.73;4.03;;;25.60;80.20;;;;;;5030984;28;20469;-55
2021/07/11 09:17:14;;;;;;;5.17;4.10;;;25.80;80.20;;;;;;5030726;28;20967;-54
2021/07/11 09:19:42;;;;;;;4.53;3.70;;;25.90;79.60;;;;;;5030563;28;20435;-55
2021/07/11 09:22:10;;;;;;;4.10;3.70;;;25.80;79.00;;;;;;5030757;28;20439;-55
2021/07/11 09:24:38;;;;;;;3.80;3.50;;;25.80;78.80;;;;;;5030638;28;20466;-54
2021/07/11 09:27:08;;;;;;;3.73;3.43;;;26.00;78.20;;;;;;5030741;28;20438;-55
2021/07/11 09:29:36;;;;;;;4.10;3.70;;;26.10;77.80;;;;;;5030408;28;20431;-55
2021/07/11 09:32:05;;;;;;;4.70;4.20;;;26.10;77.70;;;;;;5030781;28;20440;-55
2021/07/11 09:34:33;;;;;;;5.90;3.63;;;26.20;78.10;;;;;;5030562;28;20468;-54
2021/07/11 09:37:07;;;;;;;3.90;3.60;;;26.30;77.50;;;;;;5030448;28;20804;-55
2021/07/11 09:39:35;;;;;;;3.53;3.23;;;26.40;76.40;;;;;;5031014;28;20430;-55
2021/07/11 09:42:04;;;;;;;5.20;3.70;;;26.40;76.20;;;;;;5013039;28;20456;-54
2021/07/11 09:44:42;;;;;;;4.80;3.43;;;26.50;76.10;;;;;;5030858;28;20465;-55
2021/07/11 09:47:17;;;;;;;3.43;3.13;;;26.50;75.30;;;;;;5031870;28;20442;-54
2021/07/11 09:49:45;;;;;;;5.13;3.50;;;26.50;75.00;;;;;;5034114;28;20812;-55
2021/07/11 09:52:11;;;;;;;3.73;3.43;;;26.40;74.70;;;;;;5033801;28;20432;-55
2021/07/11 09:54:38;;;;;;;4.27;3.20;;;26.50;74.10;;;;;;5034061;28;20467;-54
2021/07/11 09:57:09;;;;;;;4.17;3.80;;;26.60;73.80;;;;;;5034366;28;20461;-54
2021/07/11 09:59:37;;;;;;;5.37;4.10;;;26.50;73.60;;;;;;5033595;28;20458;-55
2021/07/11 10:02:04;;;;;;;6.60;5.03;;;26.50;73.70;;;;;;5034167;28;20436;-55
2021/07/11 10:04:32;;;;;;;4.10;3.70;;;26.60;73.20;;;;;;5033796;28;20940;-56
2021/07/11 10:06:59;;;;;;;6.87;3.30;;;26.40;72.80;;;;;;5033977;28;20435;-55
2021/07/11 10:09:26;;;;;;;4.00;3.60;;;26.60;72.60;;;;;;5033974;28;20463;-58
2021/07/11 10:11:53;;;;;;;6.90;3.60;;;26.60;72.40;;;;;;5034209;28;20424;-56
2021/07/11 10:14:20;;;;;;;3.43;3.13;;;26.50;72.30;;;;;;5034282;28;20561;-55
2021/07/11 10:16:46;;;;;;;4.10;3.70;;;26.60;72.20;;;;;;5033937;28;20956;-55
2021/07/11 10:19:14;;;;;;;4.17;3.77;;;26.60;72.20;;;;;;5033363;28;20475;-55
2021/07/11 10:21:45;;;;;;;3.73;3.33;;;26.40;71.70;;;;;;5033796;28;20432;-54
2021/07/11 10:24:21;;;;;;;3.37;3.07;;;26.60;70.90;;;;;;5033671;28;20466;-55
2021/07/11 10:26:49;;;;;;;3.73;3.30;;;26.60;69.60;;;;;;5033914;28;20454;-55
2021/07/11 10:29:18;;;;;;;3.60;3.07;;;26.50;69.70;;;;;;5015724;28;20476;-55
2021/07/11 10:31:46;;;;;;;4.60;3.40;;;26.60;69.70;;;;;;5033674;28;20481;-55
2021/07/11 10:34:24;;;;;;;4.10;3.50;;;26.50;69.80;;;;;;5033513;28;20826;-55
2021/07/11 10:36:53;;;;;;;3.37;3.07;;;26.40;70.20;;;;;;5033514;28;20443;-55
2021/07/11 10:39:19;;;;;;;4.07;3.77;;;26.60;69.50;;;;;;5033115;28;20479;-54
2021/07/11 10:41:48;;;;;;;3.93;3.20;;;26.50;69.20;;;;;;5033653;28;20443;-55
2021/07/11 10:44:20;;;;;;;5.00;3.17;;;26.60;68.20;;;;;;5033907;28;20460;-55
2021/07/11 10:46:48;;;;;;;4.00;3.70;;;26.70;68.00;;;;;;5033560;28;20436;-55
2021/07/11 10:49:17;;;;;;;3.57;3.10;;;26.70;68.30;;;;;;5033150;28;20886;-54
2021/07/11 10:51:45;;;;;;;3.87;3.10;;;26.70;66.40;;;;;;5033136;28;20439;-54
2021/07/11 10:54:22;;;;;;;3.40;3.10;;;26.80;65.90;;;;;;5049375;22;20769;-57
2021/07/11 10:56:49;;;;;;;10.20;3.20;;;26.80;63.90;;;;;;5032911;28;20969;-55
2021/07/11 10:59:26;;;;;;;3.63;2.83;;;26.80;63.90;;;;;;5032437;28;20479;-56
2021/07/11 11:01:53;;;;;;;4.03;3.63;;;26.90;63.20;;;;;;5033080;28;20447;-55
2021/07/11 11:04:20;;;;;;;6.67;3.30;;;26.90;64.10;;;;;;5032702;28;20582;-56
2021/07/11 11:06:47;;;;;;;3.50;3.20;;;26.90;64.50;;;;;;5032987;28;20967;-55
2021/07/11 11:09:35;;;;;;;3.80;3.10;;;26.90;64.50;;;;;;5032358;28;20443;-56
2021/07/11 11:12:03;;;;;;;4.40;3.60;;;26.90;64.90;;;;;;5033218;28;20432;-55
2021/07/11 11:14:29;;;;;;;3.80;3.47;;;26.80;65.60;;;;;;5032595;28;20462;-55
2021/07/11 11:16:56;;;;;;;4.93;3.10;;;26.80;66.20;;;;;;5032593;28;20438;-56
2021/07/11 11:19:24;;;;;;;3.60;3.30;;;26.80;65.10;;;;;;5032090;28;20582;-55
2021/07/11 11:21:54;;;;;;;4.60;3.80;;;26.80;66.10;;;;;;5032301;28;20998;-56
2021/07/11 11:24:22;;;;;;;4.80;4.00;;;26.80;65.70;;;;;;5032450;28;20553;-56
2021/07/11 11:26:49;;;;;;;4.47;3.43;;;26.90;65.10;;;;;;5032365;28;20427;-55
2021/07/11 11:29:15;;;;;;;5.13;3.23;;;26.90;64.80;;;;;;5032032;28;20441;-55
2021/07/11 11:31:42;;;;;;;3.50;3.20;;;26.90;64.40;;;;;;5032233;28;20951;-55
2021/07/11 11:34:11;;;;;;;3.40;3.10;;;27.00;63.90;;;;;;5032184;28;20435;-56
2021/07/11 11:36:40;;;;;;;2.90;2.70;;;27.00;63.10;;;;;;5032180;28;20438;-55
2021/07/11 11:39:10;;;;;;;5.33;3.53;;;27.10;62.40;;;;;;5031504;28;20482;-56
2021/07/11 11:41:38;;;;;;;4.43;2.97;;;27.10;61.70;;;;;;5032030;28;20795;-56
2021/07/11 11:44:07;;;;;;;3.27;2.80;;;27.20;61.50;;;;;;5031996;28;20459;-56
2021/07/11 11:46:34;;;;;;;4.93;3.50;;;27.20;60.50;;;;;;5032005;28;20436;-55
2021/07/11 11:49:02;;;;;;;2.93;2.73;;;27.20;60.50;;;;;;5031879;28;20427;-56
2021/07/11 11:51:29;;;;;;;3.23;2.93;;;27.20;59.70;;;;;;5031839;28;20433;-56
2021/07/11 11:53:56;;;;;;;4.23;3.53;;;27.20;59.90;;;;;;5013896;28;20822;-55
2021/07/11 11:56:23;;;;;;;3.07;2.80;;;27.20;60.20;;;;;;5031679;28;20471;-56
2021/07/11 11:58:59;;;;;;;4.83;3.43;;;27.20;61.10;;;;;;5031472;28;20472;-55
2021/07/11 12:01:30;;;;;;;3.23;2.93;;;27.30;62.60;;;;;;5032201;28;20931;-55
2021/07/11 12:04:08;;;;;;;4.17;3.77;;;27.30;62.70;;;;;;5031485;28;20446;-55
2021/07/11 12:06:36;;;;;;;3.40;3.10;;;27.40;62.60;;;;;;5031720;28;20449;-55
2021/07/11 12:09:04;;;;;;;6.13;3.37;;;27.50;62.50;;;;;;5031080;28;20540;-54
2021/07/11 12:11:30;;;;;;;3.40;3.10;;;27.50;62.00;;;;;;5031015;28;20789;-55
2021/07/11 12:14:07;;;;;;;3.83;3.43;;;27.40;61.30;;;;;;5031408;28;20444;-55
2021/07/11 12:16:34;;;;;;;3.40;3.10;;;27.50;61.60;;;;;;5031654;28;20522;-55
2021/07/11 12:19:05;;;;;;;3.60;3.30;;;27.50;60.70;;;;;;5030857;28;20996;-55
2021/07/11 12:21:32;;;;;;;3.47;3.10;;;27.60;59.80;;;;;;5031569;28;20792;-55
2021/07/11 12:24:02;;;;;;;4.20;3.57;;;27.70;59.40;;;;;;5031515;28;20451;-57
2021/07/11 12:26:29;;;;;;;3.07;2.77;;;27.80;58.70;;;;;;5013602;28;20539;-56
2021/07/11 12:28:57;;;;;;;3.33;2.70;;;27.80;57.80;;;;;;5031381;28;20435;-56
2021/07/11 12:31:27;;;;;;;3.30;3.00;;;27.80;57.90;;;;;;5031133;28;20436;-55
2021/07/11 12:33:59;;;;;;;3.50;3.20;;;27.90;57.90;;;;;;5030991;28;20527;-55
2021/07/11 12:36:26;;;;;;;3.37;3.07;;;28.00;58.00;;;;;;5030908;28;20463;-55
2021/07/11 12:38:53;;;;;;;4.03;3.53;;;28.00;57.90;;;;;;5030781;28;20477;-54
2021/07/11 12:41:26;;;;;;;3.80;3.50;;;27.90;58.00;;;;;;5031006;28;20463;-55
2021/07/11 12:43:54;;;;;;;3.90;3.27;;;27.90;57.80;;;;;;5031342;28;20957;-55
2021/07/11 12:46:25;;;;;;;3.37;2.77;;;28.00;57.30;;;;;;5031023;28;20469;-55
2021/07/11 12:48:55;;;;;;;3.60;3.30;;;28.20;56.80;;;;;;5030645;28;20438;-56
2021/07/11 12:51:25;;;;;;;3.50;3.20;;;28.20;56.60;;;;;;5031197;28;20925;-55